Meath Environmental Platform

Observations for Trim Market St

Time AQI Temp °C Hum % Pres Pa CO μg/m³ H₂S μg/m³ NO μg/m³ NO₂ μg/m³ O₃ μg/m³ SO₂ μg/m³ PM1 μg/m³ PM2.5 μg/m³ PM10 μg/m³
Friday 14 August 2026
19:17 2 24.2 45 63,760 0 0 1.13 10.11 75.11 0 0 2.14 2.35
19:16 2 24.3 45 63,835 0 0 1.12 10.06 74.04 0 0 2.14 2.36
19:15 2 24.3 45 63,870 0 0 1.1 10.29 71.53 0 0 2.14 2.36
19:14 2 24.3 45 63,914 0 0 1.1 9.94 71.66 0 0 2.14 2.36
19:13 2 24.3 45 63,944 0 0 1.11 10 77.66 0 0 2.15 2.36
19:12 2 24.4 45 64,011 0.11 0 1.1 10.4 78.32 0 0 2.15 2.37
19:11 2 24.4 45 64,133 0 0 1.11 9.89 67.3 0 0 2.16 2.37
19:10 2 24.4 45 64,203 0 0 1.11 10.29 72.49 0 0 2.16 2.86
19:09 2 24.4 44 64,254 0 0 1.12 9.98 62.49 0 0 2.17 2.38
19:08 2 24.5 44 64,317 0 0 1.08 10.07 72.43 0 0.71 2.69 2.96
19:07 2 24.5 44 64,337 0 0 1.09 10.16 68.71 0 0 2.17 2.39
19:06 2 24.5 44 64,421 0 0 1.55 10.27 56.56 0 0 2.17 2.39
19:03 2 24.6 44 64,442 0 0 1.1 10.24 64.75 0 0 2.18 2.4
19:02 2 24.6 44 64,497 0 0 1.1 15.04 53.5 0 0 2.71 2.84
19:01 2 24.7 44 64,564 0 0 1.05 9.38 66.67 0 0 2.19 2.41
19:00 2 24.7 44 64,592 0 0 1.08 9.41 66.7 0 0 2.19 2.41
18:59 2 24.8 44 64,629 0 0 1.06 9.55 66.46 0 0 2.2 2.42
18:58 2 24.8 44 64,670 0 0 1.06 9.71 65.5 0 0 2.2 2.83
18:57 2 24.8 44 64,699 0 0 1.09 10.09 62.23 0 0 2.2 2.42
18:56 2 24.9 44 64,730 0 0 1.15 10.43 44.63 0 0 2.2 2.42